| time (UTC) | temp F | wind direction | speed MPH | gust MPH | rain 1hr in | rain 24hr in | rain mn in | humidity % | barometer mb |
| 20260510024144 | 57 | 166 | 2.0 | 2.0 | 0.00 | 0.00 | 0.00 | 48 | 1029.7 |
| 20260510023639 | 57 | 127 | 2.0 | 2.0 | 0.00 | 0.00 | 0.00 | 48 | 1029.6 |
| 20260510023137 | 57 | 78 | 2.0 | 2.0 | 0.00 | 0.00 | 0.00 | 49 | 1029.6 |
| 20260510022631 | 57 | 205 | 1.0 | 1.0 | 0.00 | 0.00 | 0.00 | 50 | 1029.6 |
| 20260510022126 | 56 | 179 | 2.0 | 3.0 | 0.00 | 0.00 | 0.00 | 52 | 1029.5 |
| 20260510021622 | 57 | 178 | 1.0 | 2.0 | 0.00 | 0.00 | 0.00 | 51 | 1029.6 |
| 20260510021120 | 57 | 187 | 1.0 | 1.0 | 0.00 | 0.00 | 0.00 | 51 | 1029.4 |
| 20260510020613 | 57 | 194 | 1.0 | 1.0 | 0.00 | 0.00 | 0.00 | 51 | 1029.5 |
| 20260510020109 | 57 | 148 | 1.0 | 2.0 | 0.00 | 0.00 | 0.00 | 51 | 1029.4 |
| 20260510015605 | 59 | 228 | 0.0 | 0.0 | 0.00 | 0.00 | 0.00 | 51 | 1029.2 |
| 20260510015102 | 60 | 285 | 0.0 | 0.0 | 0.00 | 0.00 | 0.00 | 47 | 1029.1 |
| 20260510014557 | 60 | 204 | 1.0 | 2.0 | 0.00 | 0.00 | 0.00 | 47 | 1029.1 |
| 20260510014055 | 60 | 130 | 2.0 | 3.0 | 0.00 | 0.00 | 0.00 | 45 | 1029.1 |
| 20260510013550 | 60 | 175 | 1.0 | 1.0 | 0.00 | 0.00 | 0.00 | 46 | 1029.0 |
| 20260510013046 | 61 | 174 | 2.0 | 3.0 | 0.00 | 0.00 | 0.00 | 46 | 1029.0 |
| 20260510012545 | 61 | 227 | 1.0 | 1.0 | 0.00 | 0.00 | 0.00 | 45 | 1028.8 |
| 20260510012042 | 61 | 208 | 1.0 | 2.0 | 0.00 | 0.00 | 0.00 | 45 | 1029.0 |
| 20260510011542 | 61 | 182 | 1.0 | 2.0 | 0.00 | 0.00 | 0.00 | 44 | 1028.9 |
| 20260510011037 | 62 | 142 | 1.0 | 2.0 | 0.00 | 0.00 | 0.00 | 44 | 1028.9 |
| 20260510010534 | 63 | 272 | 1.0 | 1.0 | 0.00 | 0.00 | 0.00 | 45 | 1029.1 |
| 20260510010031 | 63 | 118 | 2.0 | 3.0 | 0.00 | 0.00 | 0.00 | 43 | 1028.9 |
| 20260510005522 | 62 | 104 | 2.0 | 3.0 | 0.00 | 0.00 | 0.00 | 45 | 1029.0 |
| 20260510005020 | 63 | 104 | 3.0 | 3.0 | 0.00 | 0.00 | 0.00 | 43 | 1028.9 |
| 20260510004517 | 64 | 285 | 2.0 | 2.0 | 0.00 | 0.00 | 0.00 | 43 | 1029.0 |
| 20260510004015 | 64 | 274 | 0.0 | 1.0 | 0.00 | 0.00 | 0.00 | 44 | 1028.9 |
| 20260510003511 | 65 | 296 | 2.0 | 2.0 | 0.00 | 0.00 | 0.00 | 42 | 1029.0 |
| 20260510003007 | 65 | 254 | 1.0 | 1.0 | 0.00 | 0.00 | 0.00 | 42 | 1028.8 |
| 20260510002503 | 66 | 267 | 2.0 | 3.0 | 0.00 | 0.00 | 0.00 | 41 | 1028.9 |
| 20260510002000 | 66 | 273 | 4.0 | 6.0 | 0.00 | 0.00 | 0.00 | 42 | 1028.8 |
| 20260510001457 | 66 | 45 | 2.0 | 3.0 | 0.00 | 0.00 | 0.00 | 40 | 1028.9 |
| 20260510000955 | 66 | 246 | 1.0 | 2.0 | 0.00 | 0.00 | 0.00 | 42 | 1028.8 |
| 20260510000450 | 65 | 275 | 2.0 | 3.0 | 0.00 | 0.00 | 0.00 | 42 | 1028.8 |
| 20260509235947 | 65 | 352 | 4.0 | 4.0 | 0.00 | 0.00 | 0.00 | 41 | 1028.7 |
| 20260509235444 | 65 | 255 | 2.0 | 3.0 | 0.00 | 0.00 | 0.00 | 41 | 1028.7 |
| 20260509234940 | 63 | 305 | 6.0 | 8.0 | 0.00 | 0.00 | 0.00 | 42 | 1028.8 |
| 20260509234437 | 63 | 43 | 2.0 | 3.0 | 0.00 | 0.00 | 0.00 | 42 | 1028.6 |
| 20260509233935 | 65 | 232 | 1.0 | 2.0 | 0.00 | 0.00 | 0.00 | 42 | 1028.7 |
| 20260509233432 | 66 | 239 | 6.0 | 7.0 | 0.00 | 0.00 | 0.00 | 42 | 1028.7 |
| 20260509232928 | 66 | 347 | 1.0 | 1.0 | 0.00 | 0.00 | 0.00 | 41 | 1028.5 |
| 20260509232427 | 66 | 273 | 2.0 | 2.0 | 0.00 | 0.00 | 0.00 | 40 | 1028.6 |
| 20260509231921 | 64 | 5 | 5.0 | 8.0 | 0.00 | 0.00 | 0.00 | 41 | 1028.5 |
| 20260509231418 | 63 | 249 | 3.0 | 4.0 | 0.00 | 0.00 | 0.00 | 43 | 1028.5 |
| 20260509230917 | 63 | 253 | 4.0 | 4.0 | 0.00 | 0.00 | 0.00 | 43 | 1028.5 |
| 20260509230413 | 63 | 280 | 2.0 | 4.0 | 0.00 | 0.00 | 0.00 | 46 | 1028.5 |
| 20260509225909 | 62 | 339 | 1.0 | 2.0 | 0.00 | 0.00 | 0.00 | 45 | 1028.6 |
| 20260509225406 | 62 | 314 | 4.0 | 6.0 | 0.00 | 0.00 | 0.00 | 43 | 1028.6 |
| 20260509224901 | 62 | 353 | 4.0 | 6.0 | 0.00 | 0.00 | 0.00 | 43 | 1028.6 |
| 20260509224357 | 62 | 301 | 2.0 | 3.0 | 0.00 | 0.00 | 0.00 | 45 | 1028.5 |
| 20260509223855 | 62 | 354 | 3.0 | 4.0 | 0.00 | 0.00 | 0.00 | 44 | 1028.3 |
| 20260509223351 | 62 | 6 | 3.0 | 4.0 | 0.00 | 0.00 | 0.00 | 43 | 1028.5 |
| 20260509222849 | 62 | 333 | 3.0 | 3.0 | 0.00 | 0.00 | 0.00 | 43 | 1028.3 |
| 20260509222348 | 65 | 37 | 5.0 | 7.0 | 0.00 | 0.00 | 0.00 | 40 | 1028.1 |
| 20260509221844 | 64 | 45 | 5.0 | 6.0 | 0.00 | 0.00 | 0.00 | 40 | 1028.3 |
| 20260509221342 | 65 | 307 | 8.0 | 10.0 | 0.00 | 0.00 | 0.00 | 38 | 1028.5 |
| 20260509220842 | 65 | 274 | 0.0 | 1.0 | 0.00 | 0.00 | 0.00 | 39 | 1028.3 |
| 20260509220339 | 64 | 346 | 4.0 | 4.0 | 0.00 | 0.00 | 0.00 | 40 | 1028.2 |
| 20260509215834 | 65 | 56 | 2.0 | 3.0 | 0.00 | 0.00 | 0.00 | 38 | 1028.2 |
| 20260509215331 | 65 | 299 | 5.0 | 6.0 | 0.00 | 0.00 | 0.00 | 36 | 1028.5 |
| 20260509214828 | 65 | 307 | 4.0 | 6.0 | 0.00 | 0.00 | 0.00 | 39 | 1028.3 |
| 20260509214326 | 64 | 296 | 4.0 | 4.0 | 0.00 | 0.00 | 0.00 | 40 | 1028.1 |
| 20260509213823 | 66 | 265 | 4.0 | 4.0 | 0.00 | 0.00 | 0.00 | 40 | 1028.2 |
| 20260509213318 | 64 | 355 | 1.0 | 3.0 | 0.00 | 0.00 | 0.00 | 43 | 1028.3 |
| 20260509212816 | 64 | 255 | 2.0 | 2.0 | 0.00 | 0.00 | 0.00 | 40 | 1028.5 |
| 20260509212313 | 64 | 312 | 4.0 | 6.0 | 0.00 | 0.00 | 0.00 | 39 | 1028.6 |
| 20260509211809 | 63 | 314 | 2.0 | 3.0 | 0.00 | 0.00 | 0.00 | 42 | 1028.3 |
| 20260509211304 | 63 | 293 | 4.0 | 6.0 | 0.00 | 0.00 | 0.00 | 42 | 1028.3 |
| 20260509210801 | 63 | 326 | 7.0 | 9.0 | 0.00 | 0.00 | 0.00 | 43 | 1028.2 |
| 20260509210259 | 65 | 358 | 7.0 | 9.0 | 0.00 | 0.00 | 0.00 | 39 | 1028.3 |
| 20260509205758 | 65 | 285 | 4.0 | 4.0 | 0.00 | 0.00 | 0.00 | 41 | 1028.5 |
| 20260509205253 | 64 | 295 | 6.0 | 9.0 | 0.00 | 0.00 | 0.00 | 42 | 1028.2 |
| 20260509204750 | 62 | 319 | 5.0 | 9.0 | 0.00 | 0.00 | 0.00 | 37 | 1028.2 |
| 20260509204246 | 63 | 318 | 15.0 | 18.0 | 0.00 | 0.00 | 0.00 | 37 | 1028.3 |
| 20260509203742 | 63 | 19 | 8.0 | 11.0 | 0.00 | 0.00 | 0.00 | 39 | 1028.2 |
| 20260509203240 | 63 | 351 | 9.0 | 11.0 | 0.00 | 0.00 | 0.00 | 41 | 1028.2 |
| 20260509202736 | 62 | 5 | 5.0 | 6.0 | 0.00 | 0.00 | 0.00 | 40 | 1028.0 |
| 20260509202232 | 63 | 332 | 4.0 | 7.0 | 0.00 | 0.00 | 0.00 | 41 | 1027.8 |
| 20260509201726 | 63 | 253 | 3.0 | 4.0 | 0.00 | 0.00 | 0.00 | 43 | 1028.1 |
| 20260509201223 | 63 | 351 | 8.0 | 9.0 | 0.00 | 0.00 | 0.00 | 38 | 1027.8 |
| 20260509200720 | 63 | 15 | 6.0 | 8.0 | 0.00 | 0.00 | 0.00 | 40 | 1027.8 |
| 20260509200215 | 62 | 349 | 6.0 | 7.0 | 0.00 | 0.00 | 0.00 | 42 | 1027.9 |
| 20260509195712 | 63 | 334 | 9.0 | 11.0 | 0.00 | 0.00 | 0.00 | 42 | 1027.9 |
| 20260509195207 | 63 | 26 | 4.0 | 8.0 | 0.00 | 0.00 | 0.00 | 41 | 1027.9 |
| 20260509194706 | 64 | 300 | 5.0 | 6.0 | 0.00 | 0.00 | 0.00 | 42 | 1027.5 |
| 20260509194203 | 63 | 250 | 4.0 | 6.0 | 0.00 | 0.00 | 0.00 | 43 | 1027.7 |
| 20260509193700 | 63 | 301 | 7.0 | 8.0 | 0.00 | 0.00 | 0.00 | 47 | 1027.8 |
| 20260509193155 | 62 | 243 | 4.0 | 7.0 | 0.00 | 0.00 | 0.00 | 47 | 1027.9 |
| 20260509192651 | 63 | 350 | 4.0 | 6.0 | 0.00 | 0.00 | 0.00 | 47 | 1027.8 |
| 20260509192148 | 64 | 352 | 6.0 | 8.0 | 0.00 | 0.00 | 0.00 | 46 | 1027.4 |
| 20260509191647 | 63 | 357 | 2.0 | 2.0 | 0.00 | 0.00 | 0.00 | 43 | 1027.4 |
| 20260509191144 | 64 | 13 | 4.0 | 6.0 | 0.00 | 0.00 | 0.00 | 40 | 1027.5 |
| 20260509190640 | 62 | 8 | 4.0 | 6.0 | 0.00 | 0.00 | 0.00 | 45 | 1027.5 |
| 20260509190137 | 62 | 323 | 2.0 | 3.0 | 0.00 | 0.00 | 0.00 | 46 | 1027.5 |
| 20260509185635 | 63 | 4 | 7.0 | 9.0 | 0.00 | 0.00 | 0.00 | 40 | 1027.7 |
| 20260509185132 | 61 | 252 | 1.0 | 1.0 | 0.00 | 0.00 | 0.00 | 46 | 1027.5 |
| 20260509184630 | 62 | 257 | 5.0 | 8.0 | 0.00 | 0.00 | 0.00 | 44 | 1027.7 |
| 20260509184126 | 63 | 5 | 5.0 | 7.0 | 0.00 | 0.00 | 0.00 | 38 | 1027.8 |
| 20260509183622 | 63 | 4 | 9.0 | 11.0 | 0.00 | 0.00 | 0.00 | 36 | 1027.8 |
| 20260509183117 | 62 | 220 | 1.0 | 2.0 | 0.00 | 0.00 | 0.00 | 36 | 1027.7 |
| 20260509182613 | 63 | 320 | 5.0 | 8.0 | 0.00 | 0.00 | 0.00 | 40 | 1027.8 |
| 20260509182110 | 64 | 280 | 1.0 | 2.0 | 0.00 | 0.00 | 0.00 | 41 | 1027.7 |
| 20260509181609 | 63 | 2 | 4.0 | 4.0 | 0.00 | 0.00 | 0.00 | 40 | 1027.8 |
| 20260509181106 | 63 | 155 | 1.0 | 2.0 | 0.00 | 0.00 | 0.00 | 42 | 1027.8 |
| 20260509180602 | 62 | 322 | 8.0 | 9.0 | 0.00 | 0.00 | 0.00 | 43 | 1027.7 |
| 20260509180059 | 62 | 321 | 5.0 | 6.0 | 0.00 | 0.00 | 0.00 | 45 | 1027.5 |
| 20260509175554 | 61 | 335 | 2.0 | 3.0 | 0.00 | 0.00 | 0.00 | 45 | 1027.5 |
| 20260509175052 | 61 | 60 | 6.0 | 8.0 | 0.00 | 0.00 | 0.00 | 41 | 1027.8 |
| 20260509174543 | 60 | 278 | 12.0 | 15.0 | 0.00 | 0.00 | 0.00 | 34 | 1027.7 |
| 20260509174038 | 61 | 283 | 8.0 | 11.0 | 0.00 | 0.00 | 0.00 | 34 | 1027.9 |
| 20260509173538 | 64 | 13 | 5.0 | 6.0 | 0.00 | 0.00 | 0.00 | 35 | 1027.7 |
| 20260509173034 | 61 | 254 | 4.0 | 4.0 | 0.00 | 0.00 | 0.00 | 35 | 1027.7 |
| 20260509172531 | 62 | 13 | 11.0 | 14.0 | 0.00 | 0.00 | 0.00 | 34 | 1027.7 |
| 20260509172027 | 62 | 49 | 5.0 | 6.0 | 0.00 | 0.00 | 0.00 | 34 | 1027.4 |
| 20260509171523 | 62 | 345 | 6.0 | 8.0 | 0.00 | 0.00 | 0.00 | 36 | 1027.7 |
| 20260509171020 | 61 | 21 | 4.0 | 4.0 | 0.00 | 0.00 | 0.00 | 35 | 1027.8 |
| 20260509170515 | 61 | 333 | 8.0 | 9.0 | 0.00 | 0.00 | 0.00 | 35 | 1027.5 |
| 20260509170012 | 59 | 9 | 6.0 | 7.0 | 0.00 | 0.00 | 0.00 | 35 | 1027.5 |
| 20260509165510 | 59 | 8 | 9.0 | 11.0 | 0.00 | 0.00 | 0.00 | 35 | 1027.4 |
| 20260509165006 | 59 | 283 | 9.0 | 13.0 | 0.00 | 0.00 | 0.00 | 37 | 1027.8 |
| 20260509164502 | 59 | 289 | 9.0 | 11.0 | 0.00 | 0.00 | 0.00 | 37 | 1027.5 |
| 20260509163958 | 59 | 305 | 12.0 | 16.0 | 0.00 | 0.00 | 0.00 | 37 | 1027.4 |
| 20260509163456 | 60 | 281 | 15.0 | 19.0 | 0.00 | 0.00 | 0.00 | 35 | 1027.4 |
| 20260509162955 | 60 | 332 | 7.0 | 10.0 | 0.00 | 0.00 | 0.00 | 35 | 1027.5 |
| 20260509162454 | 60 | 298 | 14.0 | 16.0 | 0.00 | 0.00 | 0.00 | 33 | 1027.5 |
| 20260509161949 | 59 | 316 | 8.0 | 9.0 | 0.00 | 0.00 | 0.00 | 35 | 1027.4 |
| 20260509161446 | 59 | 288 | 12.0 | 16.0 | 0.00 | 0.00 | 0.00 | 34 | 1027.5 |
| 20260509160941 | 59 | 329 | 11.0 | 14.0 | 0.00 | 0.00 | 0.00 | 34 | 1027.3 |
| 20260509160437 | 59 | 304 | 14.0 | 17.0 | 0.00 | 0.00 | 0.00 | 34 | 1027.3 |
| 20260509155932 | 59 | 300 | 8.0 | 10.0 | 0.00 | 0.00 | 0.00 | 36 | 1027.3 |
| 20260509155429 | 59 | 299 | 15.0 | 19.0 | 0.00 | 0.00 | 0.00 | 35 | 1027.3 |
| 20260509154926 | 59 | 291 | 11.0 | 14.0 | 0.00 | 0.00 | 0.00 | 35 | 1027.3 |
| 20260509154422 | 59 | 317 | 14.0 | 16.0 | 0.00 | 0.00 | 0.00 | 34 | 1027.4 |
| 20260509153919 | 58 | 323 | 11.0 | 14.0 | 0.00 | 0.00 | 0.00 | 35 | 1027.1 |
| 20260509153416 | 58 | 281 | 20.0 | 24.0 | 0.00 | 0.00 | 0.00 | 33 | 1027.3 |
| 20260509152913 | 57 | 298 | 11.0 | 13.0 | 0.00 | 0.00 | 0.00 | 34 | 1027.4 |
| 20260509152409 | 58 | 290 | 10.0 | 10.0 | 0.00 | 0.00 | 0.00 | 35 | 1027.3 |
| 20260509151906 | 57 | 285 | 18.0 | 21.0 | 0.00 | 0.00 | 0.00 | 33 | 1027.3 |
| 20260509151402 | 57 | 287 | 15.0 | 17.0 | 0.00 | 0.00 | 0.00 | 35 | 1027.1 |
| 20260509150901 | 57 | 294 | 17.0 | 19.0 | 0.00 | 0.00 | 0.00 | 35 | 1027.2 |
| 20260509150358 | 57 | 296 | 12.0 | 15.0 | 0.00 | 0.00 | 0.00 | 35 | 1027.2 |
| 20260509145856 | 57 | 237 | 7.0 | 8.0 | 0.00 | 0.00 | 0.00 | 36 | 1027.5 |
| 20260509145356 | 57 | 323 | 8.0 | 10.0 | 0.00 | 0.00 | 0.00 | 34 | 1027.3 |
| 20260509144852 | 56 | 322 | 9.0 | 13.0 | 0.00 | 0.00 | 0.00 | 34 | 1027.3 |
| 20260509144349 | 57 | 285 | 6.0 | 8.0 | 0.00 | 0.00 | 0.00 | 34 | 1027.2 |
| 20260509143846 | 56 | 305 | 6.0 | 7.0 | 0.00 | 0.00 | 0.00 | 36 | 1027.2 |
| 20260509143344 | 55 | 258 | 6.0 | 7.0 | 0.00 | 0.00 | 0.00 | 44 | 1027.1 |
| 20260509142840 | 55 | 306 | 8.0 | 9.0 | 0.00 | 0.00 | 0.00 | 41 | 1027.1 |
| 20260509142336 | 55 | 290 | 11.0 | 13.0 | 0.00 | 0.00 | 0.00 | 42 | 1027.3 |
| 20260509141832 | 55 | 282 | 9.0 | 10.0 | 0.00 | 0.00 | 0.00 | 43 | 1027.1 |
| 20260509141329 | 54 | 280 | 5.0 | 6.0 | 0.00 | 0.00 | 0.00 | 49 | 1027.1 |
| 20260509140825 | 54 | 255 | 6.0 | 7.0 | 0.00 | 0.00 | 0.00 | 49 | 1027.0 |
| 20260509140323 | 53 | 247 | 3.0 | 3.0 | 0.00 | 0.00 | 0.00 | 54 | 1027.2 |
| 20260509135821 | 53 | 236 | 3.0 | 4.0 | 0.00 | 0.00 | 0.00 | 55 | 1027.1 |
| 20260509135318 | 53 | 269 | 5.0 | 6.0 | 0.00 | 0.00 | 0.00 | 56 | 1027.0 |
| 20260509134815 | 52 | 298 | 4.0 | 6.0 | 0.00 | 0.00 | 0.00 | 58 | 1026.8 |
| 20260509134312 | 51 | 264 | 5.0 | 6.0 | 0.00 | 0.00 | 0.00 | 63 | 1027.0 |
| 20260509133809 | 51 | 233 | 4.0 | 4.0 | 0.00 | 0.00 | 0.00 | 63 | 1026.9 |
| 20260509133306 | 51 | 239 | 3.0 | 4.0 | 0.00 | 0.00 | 0.00 | 64 | 1026.9 |
| 20260509132804 | 51 | 221 | 2.0 | 2.0 | 0.00 | 0.00 | 0.00 | 63 | 1026.8 |
| 20260509132306 | 50 | 233 | 3.0 | 3.0 | 0.00 | 0.00 | 0.00 | 64 | 1026.8 |
| 20260509131759 | 50 | 216 | 4.0 | 6.0 | 0.00 | 0.00 | 0.00 | 64 | 1026.5 |
| 20260509131256 | 50 | 236 | 4.0 | 4.0 | 0.00 | 0.00 | 0.00 | 64 | 1026.6 |
| 20260509130752 | 50 | 236 | 3.0 | 3.0 | 0.00 | 0.00 | 0.00 | 64 | 1026.5 |
| 20260509130248 | 50 | 233 | 3.0 | 3.0 | 0.00 | 0.00 | 0.00 | 63 | 1026.4 |
| 20260509125745 | 50 | 251 | 3.0 | 4.0 | 0.00 | 0.00 | 0.00 | 64 | 1026.6 |
| 20260509125242 | 50 | 236 | 2.0 | 2.0 | 0.00 | 0.00 | 0.00 | 66 | 1026.5 |
| 20260509124738 | 50 | 230 | 2.0 | 3.0 | 0.00 | 0.00 | 0.00 | 67 | 1026.4 |
| 20260509124234 | 50 | 222 | 2.0 | 3.0 | 0.00 | 0.00 | 0.00 | 67 | 1026.2 |
| 20260509123733 | 49 | 254 | 3.0 | 3.0 | 0.00 | 0.00 | 0.00 | 67 | 1026.3 |
| 20260509123230 | 51 | 267 | 3.0 | 3.0 | 0.00 | 0.00 | 0.00 | 66 | 1026.3 |
| 20260509122725 | 51 | 294 | 3.0 | 3.0 | 0.00 | 0.00 | 0.00 | 65 | 1026.0 |
| 20260509122222 | 50 | 312 | 4.0 | 4.0 | 0.00 | 0.00 | 0.00 | 65 | 1026.3 |
| 20260509121719 | 50 | 262 | 4.0 | 4.0 | 0.00 | 0.00 | 0.00 | 66 | 1026.2 |
| 20260509121217 | 50 | 245 | 2.0 | 2.0 | 0.00 | 0.00 | 0.00 | 67 | 1026.0 |
| 20260509120715 | 50 | 251 | 2.0 | 3.0 | 0.00 | 0.00 | 0.00 | 67 | 1026.1 |
| 20260509120212 | 50 | 289 | 4.0 | 6.0 | 0.00 | 0.00 | 0.00 | 66 | 1026.0 |
| 20260509115710 | 50 | 272 | 4.0 | 4.0 | 0.00 | 0.00 | 0.00 | 68 | 1025.7 |
| 20260509115207 | 50 | 264 | 2.0 | 2.0 | 0.00 | 0.00 | 0.00 | 67 | 1026.0 |
| 20260509114705 | 50 | 235 | 3.0 | 3.0 | 0.00 | 0.00 | 0.00 | 68 | 1025.7 |
| 20260509114204 | 50 | 247 | 4.0 | 4.0 | 0.00 | 0.00 | 0.00 | 66 | 1025.8 |
| 20260509113702 | 50 | 269 | 1.0 | 2.0 | 0.00 | 0.00 | 0.00 | 67 | 1025.6 |
| 20260509113159 | 50 | 263 | 3.0 | 3.0 | 0.00 | 0.00 | 0.00 | 67 | 1025.5 |
| 20260509112655 | 50 | 250 | 3.0 | 3.0 | 0.00 | 0.00 | 0.00 | 68 | 1025.5 |
| 20260509112152 | 50 | 260 | 2.0 | 3.0 | 0.00 | 0.00 | 0.00 | 67 | 1025.3 |
| 20260509111650 | 51 | 250 | 3.0 | 3.0 | 0.00 | 0.00 | 0.00 | 66 | 1025.5 |
| 20260509111146 | 52 | 273 | 4.0 | 4.0 | 0.00 | 0.00 | 0.00 | 62 | 1025.2 |
| 20260509110643 | 53 | 239 | 1.0 | 2.0 | 0.00 | 0.00 | 0.00 | 61 | 1025.0 |
| 20260509110140 | 54 | 313 | 5.0 | 6.0 | 0.00 | 0.00 | 0.00 | 58 | 1024.9 |
| 20260509105638 | 55 | 316 | 5.0 | 6.0 | 0.00 | 0.00 | 0.00 | 57 | 1024.9 |
| 20260509105136 | 54 | 354 | 5.0 | 7.0 | 0.00 | 0.00 | 0.00 | 58 | 1024.9 |
| 20260509104633 | 55 | 322 | 4.0 | 6.0 | 0.00 | 0.00 | 0.00 | 58 | 1024.9 |
| 20260509104129 | 54 | 329 | 4.0 | 6.0 | 0.00 | 0.00 | 0.00 | 58 | 1024.8 |
| 20260509103627 | 55 | 329 | 8.0 | 10.0 | 0.00 | 0.00 | 0.00 | 57 | 1024.7 |
| 20260509103125 | 53 | 319 | 5.0 | 7.0 | 0.00 | 0.00 | 0.00 | 59 | 1024.7 |
| 20260509102622 | 52 | 246 | 3.0 | 3.0 | 0.00 | 0.00 | 0.00 | 64 | 1024.8 |
| 20260509102114 | 51 | 286 | 3.0 | 3.0 | 0.00 | 0.00 | 0.00 | 65 | 1024.6 |
| 20260509101610 | 52 | 253 | 3.0 | 3.0 | 0.00 | 0.00 | 0.00 | 64 | 1024.6 |
| 20260509101107 | 52 | 293 | 2.0 | 2.0 | 0.00 | 0.00 | 0.00 | 63 | 1024.5 |
| 20260509100604 | 52 | 236 | 1.0 | 2.0 | 0.00 | 0.00 | 0.00 | 64 | 1024.6 |
| 20260509095557 | 53 | 231 | 4.0 | 4.0 | 0.00 | 0.00 | 0.00 | 65 | 1024.1 |
| 20260509095055 | 54 | 244 | 4.0 | 4.0 | 0.00 | 0.00 | 0.00 | 61 | 1024.0 |
| 20260509094551 | 54 | 259 | 0.0 | 0.0 | 0.00 | 0.00 | 0.00 | 59 | 1024.0 |
| 20260509094049 | 55 | 320 | 4.0 | 4.0 | 0.00 | 0.00 | 0.00 | 55 | 1024.0 |
| 20260509093547 | 56 | 315 | 3.0 | 3.0 | 0.00 | 0.00 | 0.00 | 55 | 1023.9 |
| 20260509093044 | 54 | 305 | 3.0 | 3.0 | 0.00 | 0.00 | 0.00 | 59 | 1023.8 |
| 20260509092542 | 53 | 278 | 1.0 | 1.0 | 0.00 | 0.00 | 0.00 | 62 | 1024.0 |
| 20260509092041 | 53 | 286 | 1.0 | 1.0 | 0.00 | 0.00 | 0.00 | 63 | 1023.8 |
| 20260509091538 | 54 | 246 | 0.0 | 0.0 | 0.00 | 0.00 | 0.00 | 62 | 1023.9 |
| 20260509091034 | 53 | 241 | 1.0 | 2.0 | 0.00 | 0.00 | 0.00 | 62 | 1023.7 |
| 20260509090532 | 54 | 220 | 2.0 | 2.0 | 0.00 | 0.00 | 0.00 | 63 | 1023.7 |
| 20260509090029 | 55 | 236 | 5.0 | 6.0 | 0.00 | 0.00 | 0.00 | 61 | 1023.6 |
| 20260509085526 | 54 | 281 | 4.0 | 6.0 | 0.00 | 0.00 | 0.00 | 59 | 1023.3 |
| 20260509085022 | 55 | 252 | 4.0 | 4.0 | 0.00 | 0.00 | 0.00 | 59 | 1023.5 |
| 20260509084519 | 56 | 267 | 3.0 | 3.0 | 0.00 | 0.00 | 0.00 | 56 | 1023.5 |
| 20260509084016 | 55 | 350 | 4.0 | 4.0 | 0.00 | 0.00 | 0.00 | 57 | 1023.2 |
| 20260509083514 | 56 | 257 | 4.0 | 4.0 | 0.00 | 0.00 | 0.00 | 55 | 1023.5 |
| 20260509083010 | 56 | 271 | 3.0 | 3.0 | 0.00 | 0.00 | 0.00 | 55 | 1023.2 |
| 20260509082508 | 57 | 267 | 2.0 | 2.0 | 0.00 | 0.00 | 0.00 | 53 | 1023.2 |
| 20260509082005 | 58 | 299 | 4.0 | 4.0 | 0.00 | 0.00 | 0.00 | 51 | 1023.2 |
| 20260509081502 | 58 | 307 | 4.0 | 4.0 | 0.00 | 0.00 | 0.00 | 50 | 1023.1 |
| 20260509080958 | 59 | 313 | 6.0 | 7.0 | 0.00 | 0.00 | 0.00 | 48 | 1023.0 |
| 20260509080457 | 59 | 340 | 4.0 | 4.0 | 0.00 | 0.00 | 0.00 | 48 | 1022.9 |
| 20260509075954 | 59 | 322 | 5.0 | 7.0 | 0.00 | 0.00 | 0.00 | 47 | 1022.8 |
| 20260509075451 | 59 | 325 | 6.0 | 7.0 | 0.00 | 0.00 | 0.00 | 47 | 1022.7 |
| 20260509074949 | 59 | 331 | 7.0 | 9.0 | 0.00 | 0.00 | 0.00 | 47 | 1022.5 |
| 20260509074446 | 59 | 330 | 6.0 | 7.0 | 0.00 | 0.00 | 0.00 | 47 | 1022.8 |
| 20260509073943 | 59 | 322 | 6.0 | 7.0 | 0.00 | 0.00 | 0.00 | 47 | 1022.8 |
| 20260509073439 | 59 | 343 | 4.0 | 6.0 | 0.00 | 0.00 | 0.00 | 46 | 1022.8 |
| 20260509072935 | 60 | 276 | 2.0 | 3.0 | 0.00 | 0.00 | 0.00 | 45 | 1022.8 |
| 20260509072433 | 60 | 314 | 9.0 | 9.0 | 0.00 | 0.00 | 0.00 | 43 | 1022.8 |
| 20260509071929 | 60 | 348 | 6.0 | 8.0 | 0.00 | 0.00 | 0.00 | 44 | 1022.4 |
| 20260509071426 | 60 | 279 | 9.0 | 10.0 | 0.00 | 0.00 | 0.00 | 44 | 1022.5 |
| 20260509070924 | 61 | 296 | 14.0 | 17.0 | 0.00 | 0.00 | 0.00 | 43 | 1022.7 |
| 20260509070420 | 61 | 300 | 7.0 | 9.0 | 0.00 | 0.00 | 0.00 | 41 | 1022.8 |
| 20260509065915 | 61 | 313 | 6.0 | 8.0 | 0.00 | 0.00 | 0.00 | 42 | 1022.5 |
| 20260509065411 | 61 | 315 | 12.0 | 15.0 | 0.00 | 0.00 | 0.00 | 42 | 1022.4 |
| 20260509064908 | 60 | 300 | 7.0 | 8.0 | 0.00 | 0.00 | 0.00 | 42 | 1022.3 |
| 20260509064406 | 60 | 321 | 10.0 | 11.0 | 0.00 | 0.00 | 0.00 | 43 | 1022.2 |
| 20260509063903 | 60 | 325 | 9.0 | 11.0 | 0.00 | 0.00 | 0.00 | 44 | 1022.1 |
| 20260509063359 | 60 | 335 | 15.0 | 19.0 | 0.00 | 0.00 | 0.00 | 43 | 1022.1 |
| 20260509062856 | 60 | 317 | 12.0 | 14.0 | 0.00 | 0.00 | 0.00 | 44 | 1022.1 |
| 20260509062353 | 60 | 305 | 7.0 | 8.0 | 0.00 | 0.00 | 0.00 | 44 | 1022.2 |
| 20260509061850 | 60 | 317 | 13.0 | 15.0 | 0.00 | 0.00 | 0.00 | 44 | 1022.4 |
| 20260509061348 | 60 | 302 | 10.0 | 14.0 | 0.00 | 0.00 | 0.00 | 46 | 1022.4 |
| 20260509060844 | 61 | 312 | 12.0 | 14.0 | 0.00 | 0.00 | 0.00 | 45 | 1022.5 |
| 20260509060342 | 62 | 335 | 13.0 | 16.0 | 0.00 | 0.00 | 0.00 | 44 | 1022.3 |
| 20260509055837 | 62 | 348 | 8.0 | 11.0 | 0.00 | 0.00 | 0.00 | 43 | 1022.4 |
| 20260509055333 | 62 | 319 | 14.0 | 15.0 | 0.00 | 0.00 | 0.00 | 42 | 1022.3 |
| 20260509054830 | 62 | 338 | 17.0 | 18.0 | 0.00 | 0.00 | 0.00 | 42 | 1022.2 |
| 20260509054326 | 62 | 328 | 15.0 | 18.0 | 0.00 | 0.00 | 0.00 | 41 | 1022.1 |
| 20260509053825 | 62 | 338 | 16.0 | 19.0 | 0.00 | 0.00 | 0.00 | 41 | 1022.3 |
| 20260509053322 | 61 | 340 | 11.0 | 15.0 | 0.00 | 0.00 | 0.00 | 45 | 1022.2 |
| 20260509052820 | 61 | 40 | 9.0 | 17.0 | 0.00 | 0.00 | 0.00 | 45 | 1022.1 |
| 20260509052317 | 61 | 301 | 4.0 | 4.0 | 0.00 | 0.00 | 0.00 | 45 | 1022.0 |
| 20260509051815 | 61 | 238 | 7.0 | 9.0 | 0.00 | 0.00 | 0.00 | 45 | 1022.1 |
| 20260509051313 | 62 | 18 | 5.0 | 7.0 | 0.00 | 0.00 | 0.00 | 42 | 1022.0 |
| 20260509050809 | 62 | 315 | 9.0 | 11.0 | 0.00 | 0.00 | 0.00 | 41 | 1022.3 |
| 20260509050306 | 63 | 313 | 11.0 | 14.0 | 0.00 | 0.00 | 0.00 | 39 | 1022.0 |
| 20260509045803 | 63 | 282 | 8.0 | 9.0 | 0.00 | 0.00 | 0.00 | 39 | 1021.6 |
| 20260509045259 | 63 | 280 | 8.0 | 11.0 | 0.00 | 0.00 | 0.00 | 40 | 1021.6 |
| 20260509044757 | 63 | 262 | 8.0 | 9.0 | 0.00 | 0.00 | 0.00 | 39 | 1021.6 |
| 20260509044255 | 64 | 287 | 11.0 | 11.0 | 0.00 | 0.00 | 0.00 | 38 | 1021.9 |
| 20260509043751 | 64 | 305 | 6.0 | 8.0 | 0.00 | 0.00 | 0.00 | 37 | 1021.8 |
| 20260509043247 | 64 | 276 | 6.0 | 7.0 | 0.00 | 0.00 | 0.00 | 37 | 1021.6 |
| 20260509042743 | 64 | 277 | 9.0 | 15.0 | 0.00 | 0.00 | 0.00 | 36 | 1021.6 |
| 20260509042239 | 64 | 256 | 10.0 | 11.0 | 0.00 | 0.00 | 0.00 | 36 | 1021.3 |
| 20260509041736 | 65 | 242 | 8.0 | 9.0 | 0.00 | 0.00 | 0.00 | 35 | 1021.4 |
| 20260509041233 | 65 | 299 | 6.0 | 7.0 | 0.00 | 0.00 | 0.00 | 34 | 1021.3 |
| 20260509040732 | 65 | 272 | 6.0 | 8.0 | 0.00 | 0.00 | 0.00 | 33 | 1021.3 |
| 20260509040228 | 65 | 294 | 7.0 | 8.0 | 0.00 | 0.00 | 0.00 | 34 | 1021.3 |
| 20260509035725 | 65 | 290 | 6.0 | 7.0 | 0.00 | 0.00 | 0.00 | 34 | 1021.2 |
| 20260509035222 | 65 | 260 | 6.0 | 7.0 | 0.00 | 0.00 | 0.00 | 35 | 1020.8 |
| 20260509034720 | 64 | 276 | 9.0 | 15.0 | 0.00 | 0.00 | 0.00 | 35 | 1020.7 |
| 20260509034217 | 64 | 242 | 9.0 | 11.0 | 0.00 | 0.00 | 0.00 | 36 | 1020.7 |
| 20260509033714 | 64 | 275 | 7.0 | 8.0 | 0.00 | 0.00 | 0.00 | 36 | 1020.6 |
| 20260509033211 | 64 | 244 | 6.0 | 8.0 | 0.00 | 0.00 | 0.00 | 35 | 1020.7 |
| 20260509032708 | 63 | 226 | 8.0 | 8.0 | 0.00 | 0.00 | 0.00 | 36 | 1020.5 |
| 20260509032204 | 63 | 233 | 4.0 | 6.0 | 0.00 | 0.00 | 0.00 | 36 | 1020.6 |
| 20260509031702 | 63 | 230 | 4.0 | 4.0 | 0.00 | 0.00 | 0.00 | 37 | 1020.5 |
| 20260509031159 | 63 | 228 | 4.0 | 6.0 | 0.00 | 0.00 | 0.00 | 37 | 1020.5 |
| 20260509030658 | 64 | 242 | 5.0 | 6.0 | 0.00 | 0.00 | 0.00 | 36 | 1020.4 |
| 20260509030154 | 65 | 244 | 5.0 | 6.0 | 0.00 | 0.00 | 0.00 | 35 | 1020.2 |
| 20260509025650 | 64 | 266 | 6.0 | 7.0 | 0.00 | 0.00 | 0.00 | 35 | 1020.2 |
| 20260509025147 | 64 | 247 | 6.0 | 7.0 | 0.00 | 0.00 | 0.00 | 35 | 1020.0 |
| 20260509024642 | 66 | 227 | 5.0 | 7.0 | 0.00 | 0.00 | 0.00 | 34 | 1019.9 |